PAS121 EPWR-EPGD
Flight info
| Callsign | PAS121 |
|---|---|
| Flight time | 0h 37m |
| Altitude | 33000 |
| Route | XIDNA L617 ADVAB P733 IRLUN |
| Aircraft | B738/M-SDE2E3FGHIRWXY/LB1 |
Departure
| Time | 2026-05-05 18:18 |
|---|---|
| Airport | Copernicus Wrocław Airport (EPWR) |
Arrival
| Time | 2026-05-05 18:56 |
|---|---|
| Airport | Gdańsk Lech Wałęsa Airport (EPGD) |
| Time | Latitude | Longitude | Altitude | Speed | Heading |
|---|---|---|---|---|---|
| 2026-05-05 17:52 | 51.10868 | 16.87990 | 402 ft | 0 kts | 26° |
| 2026-05-05 18:06 | 51.10855 | 16.87980 | 399 ft | 3 kts | 26° |
| 2026-05-05 18:06 | 51.10837 | 16.87965 | 399 ft | 3 kts | 25° |
| 2026-05-05 18:07 | 51.10819 | 16.87953 | 400 ft | 2 kts | 14° |
| 2026-05-05 18:07 | 51.10808 | 16.87951 | 401 ft | 1 kts | 338° |
| 2026-05-05 18:07 | 51.10801 | 16.87958 | 396 ft | 1 kts | 307° |
| 2026-05-05 18:07 | 51.10796 | 16.87969 | 403 ft | 1 kts | 299° |
| 2026-05-05 18:08 | 51.10795 | 16.87973 | 403 ft | 0 kts | 298° |
| 2026-05-05 18:11 | 51.10796 | 16.87969 | 402 ft | 2 kts | 298° |
| 2026-05-05 18:11 | 51.10819 | 16.87896 | 401 ft | 12 kts | 295° |
| 2026-05-05 18:11 | 51.10870 | 16.87727 | 402 ft | 21 kts | 296° |
| 2026-05-05 18:12 | 51.10936 | 16.87508 | 402 ft | 22 kts | 293° |
| 2026-05-05 18:12 | 51.10856 | 16.87346 | 402 ft | 21 kts | 200° |
| 2026-05-05 18:12 | 51.10776 | 16.87287 | 402 ft | 0 kts | 207° |
| 2026-05-05 18:13 | 51.10767 | 16.87280 | 402 ft | 5 kts | 207° |
| 2026-05-05 18:13 | 51.10696 | 16.87251 | 402 ft | 16 kts | 168° |
| 2026-05-05 18:13 | 51.10619 | 16.87418 | 399 ft | 26 kts | 111° |
| 2026-05-05 18:13 | 51.10520 | 16.87757 | 401 ft | 39 kts | 116° |
| 2026-05-05 18:14 | 51.10403 | 16.88141 | 402 ft | 38 kts | 116° |
| 2026-05-05 18:14 | 51.10292 | 16.88508 | 405 ft | 35 kts | 116° |
| 2026-05-05 18:14 | 51.10187 | 16.88845 | 401 ft | 34 kts | 116° |
| 2026-05-05 18:14 | 51.10087 | 16.89169 | 401 ft | 31 kts | 116° |
| 2026-05-05 18:15 | 51.09995 | 16.89470 | 405 ft | 29 kts | 116° |
| 2026-05-05 18:15 | 51.09936 | 16.89652 | 402 ft | 1 kts | 135° |
| 2026-05-05 18:15 | 51.09907 | 16.89707 | 403 ft | 9 kts | 107° |
| 2026-05-05 18:15 | 51.09917 | 16.89746 | 402 ft | 2 kts | 36° |
| 2026-05-05 18:16 | 51.09931 | 16.89742 | 401 ft | 2 kts | 323° |
| 2026-05-05 18:16 | 51.09935 | 16.89695 | 402 ft | 8 kts | 268° |
| 2026-05-05 18:16 | 51.09953 | 16.89605 | 403 ft | 0 kts | 296° |
| 2026-05-05 18:18 | 51.09971 | 16.89547 | 404 ft | 33 kts | 296° |
| 2026-05-05 18:18 | 51.10219 | 16.88746 | 403 ft | 125 kts | 297° |
| 2026-05-05 18:18 | 51.10728 | 16.87225 | 734 ft | 176 kts | 301° |
| 2026-05-05 18:18 | 51.11310 | 16.85586 | 2099 ft | 164 kts | 303° |
| 2026-05-05 18:19 | 51.11928 | 16.83846 | 2869 ft | 195 kts | 302° |
| 2026-05-05 18:19 | 51.12672 | 16.81925 | 3764 ft | 209 kts | 302° |
| 2026-05-05 18:19 | 51.13496 | 16.79987 | 4687 ft | 213 kts | 302° |
| 2026-05-05 18:19 | 51.14356 | 16.78047 | 5535 ft | 219 kts | 295° |
| 2026-05-05 18:20 | 51.14782 | 16.75621 | 5811 ft | 240 kts | 278° |
| 2026-05-05 18:20 | 51.15481 | 16.73106 | 6219 ft | 260 kts | 308° |
| 2026-05-05 18:20 | 51.16983 | 16.71447 | 6827 ft | 270 kts | 339° |
| 2026-05-05 18:20 | 51.18886 | 16.71107 | 7253 ft | 288 kts | 6° |
| 2026-05-05 18:21 | 51.20875 | 16.71848 | 7891 ft | 298 kts | 18° |
| 2026-05-05 18:21 | 51.22834 | 16.72942 | 8926 ft | 298 kts | 20° |
| 2026-05-05 18:21 | 51.24784 | 16.74107 | 9836 ft | 302 kts | 20° |
| 2026-05-05 18:21 | 51.26792 | 16.75323 | 10377 ft | 320 kts | 20° |
| 2026-05-05 18:22 | 51.28962 | 16.76668 | 10585 ft | 348 kts | 20° |
| 2026-05-05 18:22 | 51.31308 | 16.78092 | 10789 ft | 372 kts | 20° |
| 2026-05-05 18:22 | 51.33776 | 16.79544 | 11372 ft | 382 kts | 19° |
| 2026-05-05 18:22 | 51.36288 | 16.80984 | 12192 ft | 385 kts | 19° |
| 2026-05-05 18:23 | 51.38828 | 16.82414 | 12996 ft | 389 kts | 18° |
| 2026-05-05 18:23 | 51.41399 | 16.83848 | 13746 ft | 394 kts | 18° |
| 2026-05-05 18:23 | 51.44002 | 16.85293 | 14430 ft | 398 kts | 18° |
| 2026-05-05 18:23 | 51.46631 | 16.86751 | 15140 ft | 402 kts | 18° |
| 2026-05-05 18:24 | 51.49288 | 16.88226 | 15843 ft | 405 kts | 18° |
| 2026-05-05 18:24 | 51.51961 | 16.89713 | 16512 ft | 410 kts | 18° |
| 2026-05-05 18:24 | 51.54665 | 16.91218 | 17186 ft | 413 kts | 18° |
| 2026-05-05 18:24 | 51.57398 | 16.92743 | 17852 ft | 417 kts | 18° |
| 2026-05-05 18:25 | 51.60155 | 16.94282 | 18453 ft | 421 kts | 18° |
| 2026-05-05 18:25 | 51.61992 | 16.95310 | 18831 ft | 424 kts | 18° |
| 2026-05-05 18:25 | 51.65745 | 16.97409 | 19575 ft | 429 kts | 17° |
| 2026-05-05 18:25 | 51.68652 | 16.98478 | 20082 ft | 430 kts | 3° |
| 2026-05-05 18:26 | 51.71638 | 16.98401 | 20624 ft | 430 kts | 349° |
| 2026-05-05 18:26 | 51.74522 | 16.97235 | 21163 ft | 428 kts | 336° |
| 2026-05-05 18:26 | 51.77301 | 16.95490 | 21704 ft | 430 kts | 335° |
| 2026-05-05 18:26 | 51.80094 | 16.93664 | 22188 ft | 434 kts | 334° |
| 2026-05-05 18:27 | 51.82905 | 16.91826 | 22682 ft | 438 kts | 335° |
| 2026-05-05 18:27 | 51.85715 | 16.90013 | 23165 ft | 442 kts | 335° |
| 2026-05-05 18:27 | 51.88584 | 16.88185 | 23600 ft | 445 kts | 335° |
| 2026-05-05 18:27 | 51.91478 | 16.86360 | 24046 ft | 447 kts | 335° |
| 2026-05-05 18:28 | 51.97296 | 16.82701 | 24919 ft | 449 kts | 335° |
| 2026-05-05 18:28 | 52.00214 | 16.80862 | 25258 ft | 451 kts | 335° |
| 2026-05-05 18:28 | 52.03145 | 16.79011 | 25573 ft | 453 kts | 335° |
| 2026-05-05 18:29 | 52.06092 | 16.77147 | 25876 ft | 455 kts | 335° |
| 2026-05-05 18:29 | 52.09072 | 16.75358 | 26186 ft | 460 kts | 341° |
| 2026-05-05 18:29 | 52.12278 | 16.74776 | 26451 ft | 472 kts | 0° |
| 2026-05-05 18:29 | 52.15520 | 16.75775 | 26783 ft | 479 kts | 16° |
| 2026-05-05 18:30 | 52.18509 | 16.78253 | 27079 ft | 486 kts | 31° |
| 2026-05-05 18:30 | 52.21313 | 16.81342 | 27360 ft | 488 kts | 33° |
| 2026-05-05 18:30 | 52.24099 | 16.84531 | 27579 ft | 491 kts | 33° |
| 2026-05-05 18:30 | 52.26900 | 16.87759 | 27798 ft | 493 kts | 33° |
| 2026-05-05 18:31 | 52.29713 | 16.90977 | 28074 ft | 495 kts | 32° |
| 2026-05-05 18:31 | 52.32547 | 16.94182 | 28345 ft | 496 kts | 32° |
| 2026-05-05 18:31 | 52.35395 | 16.97375 | 28595 ft | 497 kts | 32° |
| 2026-05-05 18:31 | 52.38252 | 17.00564 | 28908 ft | 497 kts | 32° |
| 2026-05-05 18:32 | 52.41107 | 17.03748 | 29301 ft | 495 kts | 32° |
| 2026-05-05 18:32 | 52.43947 | 17.06917 | 29703 ft | 493 kts | 32° |
| 2026-05-05 18:32 | 52.46781 | 17.10086 | 30029 ft | 493 kts | 32° |
| 2026-05-05 18:32 | 52.49606 | 17.13251 | 30316 ft | 493 kts | 32° |
| 2026-05-05 18:33 | 52.52435 | 17.16428 | 30607 ft | 492 kts | 32° |
| 2026-05-05 18:33 | 52.55252 | 17.19599 | 30928 ft | 490 kts | 32° |
| 2026-05-05 18:33 | 52.58062 | 17.22766 | 31251 ft | 489 kts | 31° |
| 2026-05-05 18:33 | 52.60868 | 17.25935 | 31553 ft | 489 kts | 31° |
| 2026-05-05 18:34 | 52.63668 | 17.29100 | 31857 ft | 488 kts | 31° |
| 2026-05-05 18:34 | 52.66424 | 17.32221 | 32169 ft | 487 kts | 31° |
| 2026-05-05 18:34 | 52.69213 | 17.35385 | 32486 ft | 486 kts | 31° |
| 2026-05-05 18:34 | 52.71994 | 17.38545 | 32799 ft | 485 kts | 31° |
| 2026-05-05 18:35 | 52.77610 | 17.44937 | 32850 ft | 487 kts | 31° |
| 2026-05-05 18:35 | 52.83135 | 17.51252 | 32847 ft | 486 kts | 31° |
| 2026-05-05 18:36 | 52.88681 | 17.57616 | 32854 ft | 485 kts | 31° |
| 2026-05-05 18:36 | 52.94222 | 17.63994 | 32846 ft | 485 kts | 31° |
| 2026-05-05 18:37 | 52.97010 | 17.67209 | 32180 ft | 492 kts | 31° |
| 2026-05-05 18:37 | 52.99811 | 17.70445 | 31463 ft | 489 kts | 31° |
| 2026-05-05 18:37 | 53.02601 | 17.73676 | 30673 ft | 490 kts | 31° |
| 2026-05-05 18:37 | 53.05398 | 17.76919 | 29848 ft | 491 kts | 31° |
| 2026-05-05 18:38 | 53.08205 | 17.80179 | 28848 ft | 493 kts | 32° |
| 2026-05-05 18:38 | 53.11021 | 17.83454 | 27879 ft | 494 kts | 32° |
| 2026-05-05 18:38 | 53.13837 | 17.86736 | 26893 ft | 495 kts | 32° |
| 2026-05-05 18:38 | 53.16699 | 17.90073 | 25857 ft | 497 kts | 32° |
| 2026-05-05 18:39 | 53.19571 | 17.92951 | 25691 ft | 476 kts | 24° |
| 2026-05-05 18:39 | 53.22512 | 17.95413 | 25682 ft | 476 kts | 22° |
| 2026-05-05 18:39 | 53.25530 | 17.97820 | 25683 ft | 485 kts | 21° |
| 2026-05-05 18:39 | 53.28616 | 18.00255 | 25193 ft | 500 kts | 22° |
| 2026-05-05 18:40 | 53.31758 | 18.02756 | 24343 ft | 497 kts | 22° |
| 2026-05-05 18:40 | 53.34851 | 18.05259 | 23534 ft | 491 kts | 23° |
| 2026-05-05 18:40 | 53.37901 | 18.07758 | 22612 ft | 486 kts | 23° |
| 2026-05-05 18:40 | 53.40923 | 18.10254 | 21688 ft | 481 kts | 23° |
| 2026-05-05 18:41 | 53.43909 | 18.12732 | 20798 ft | 476 kts | 24° |
| 2026-05-05 18:41 | 53.46862 | 18.15187 | 19932 ft | 473 kts | 24° |
| 2026-05-05 18:41 | 53.49805 | 18.17636 | 19017 ft | 471 kts | 24° |
| 2026-05-05 18:41 | 53.52701 | 18.20048 | 18448 ft | 463 kts | 24° |
| 2026-05-05 18:42 | 53.55538 | 18.22418 | 18010 ft | 450 kts | 24° |
| 2026-05-05 18:42 | 53.58350 | 18.24767 | 16965 ft | 453 kts | 24° |
| 2026-05-05 18:42 | 53.61173 | 18.27124 | 15994 ft | 453 kts | 24° |
| 2026-05-05 18:42 | 53.63981 | 18.29475 | 15377 ft | 445 kts | 24° |
| 2026-05-05 18:43 | 53.66714 | 18.31770 | 14818 ft | 435 kts | 24° |
| 2026-05-05 18:43 | 53.69414 | 18.34038 | 14006 ft | 433 kts | 24° |
| 2026-05-05 18:43 | 53.72105 | 18.36299 | 13405 ft | 426 kts | 24° |
| 2026-05-05 18:43 | 53.74698 | 18.38486 | 13132 ft | 409 kts | 24° |
| 2026-05-05 18:44 | 53.77262 | 18.40647 | 12152 ft | 413 kts | 24° |
| 2026-05-05 18:44 | 53.79835 | 18.42817 | 11262 ft | 414 kts | 24° |
| 2026-05-05 18:44 | 53.82406 | 18.44988 | 10699 ft | 407 kts | 24° |
| 2026-05-05 18:44 | 53.84876 | 18.47082 | 10591 ft | 388 kts | 24° |
| 2026-05-05 18:45 | 53.87237 | 18.49088 | 10484 ft | 372 kts | 24° |
| 2026-05-05 18:45 | 53.89504 | 18.51016 | 10387 ft | 357 kts | 24° |
| 2026-05-05 18:45 | 53.91676 | 18.52863 | 10303 ft | 343 kts | 24° |
| 2026-05-05 18:45 | 53.93745 | 18.54624 | 10182 ft | 323 kts | 24° |
| 2026-05-05 18:46 | 53.95694 | 18.56287 | 10035 ft | 306 kts | 24° |
| 2026-05-05 18:46 | 53.97583 | 18.57895 | 9614 ft | 302 kts | 24° |
| 2026-05-05 18:46 | 53.99459 | 18.59493 | 9131 ft | 300 kts | 24° |
| 2026-05-05 18:46 | 54.01313 | 18.61074 | 8671 ft | 297 kts | 24° |
| 2026-05-05 18:47 | 54.03145 | 18.62640 | 8255 ft | 293 kts | 25° |
| 2026-05-05 18:47 | 54.04965 | 18.64196 | 7857 ft | 292 kts | 25° |
| 2026-05-05 18:47 | 54.06778 | 18.65749 | 7477 ft | 291 kts | 25° |
| 2026-05-05 18:47 | 54.08578 | 18.67293 | 7112 ft | 289 kts | 25° |
| 2026-05-05 18:48 | 54.10371 | 18.68832 | 6745 ft | 288 kts | 25° |
| 2026-05-05 18:48 | 54.12153 | 18.70363 | 6398 ft | 286 kts | 25° |
| 2026-05-05 18:48 | 54.13921 | 18.71885 | 6043 ft | 283 kts | 25° |
| 2026-05-05 18:48 | 54.15667 | 18.73389 | 5691 ft | 280 kts | 25° |
| 2026-05-05 18:49 | 54.17399 | 18.74882 | 5337 ft | 277 kts | 25° |
| 2026-05-05 18:49 | 54.19114 | 18.76361 | 4976 ft | 276 kts | 25° |
| 2026-05-05 18:49 | 54.20244 | 18.77336 | 4768 ft | 273 kts | 25° |
| 2026-05-05 18:49 | 54.22462 | 18.79252 | 4389 ft | 266 kts | 26° |
| 2026-05-05 18:50 | 54.23550 | 18.80194 | 4208 ft | 263 kts | 26° |
| 2026-05-05 18:50 | 54.25181 | 18.81574 | 3897 ft | 260 kts | 21° |
| 2026-05-05 18:50 | 54.26937 | 18.82025 | 3569 ft | 256 kts | 353° |
| 2026-05-05 18:50 | 54.28574 | 18.80970 | 3264 ft | 252 kts | 325° |
| 2026-05-05 18:51 | 54.29740 | 18.78809 | 3039 ft | 244 kts | 302° |
| 2026-05-05 18:51 | 54.30459 | 18.76295 | 3009 ft | 227 kts | 295° |
| 2026-05-05 18:51 | 54.31046 | 18.73888 | 3027 ft | 213 kts | 294° |
| 2026-05-05 18:51 | 54.31603 | 18.71568 | 3027 ft | 210 kts | 294° |
| 2026-05-05 18:52 | 54.32156 | 18.69291 | 2943 ft | 202 kts | 294° |
| 2026-05-05 18:52 | 54.32681 | 18.67143 | 2707 ft | 189 kts | 294° |
| 2026-05-05 18:52 | 54.33172 | 18.65147 | 2464 ft | 176 kts | 295° |
| 2026-05-05 18:52 | 54.33639 | 18.63256 | 2226 ft | 169 kts | 295° |
| 2026-05-05 18:53 | 54.34099 | 18.61397 | 2008 ft | 171 kts | 296° |
| 2026-05-05 18:53 | 54.34567 | 18.59514 | 1784 ft | 172 kts | 296° |
| 2026-05-05 18:53 | 54.34973 | 18.57872 | 1578 ft | 166 kts | 296° |
| 2026-05-05 18:53 | 54.35405 | 18.56119 | 1387 ft | 150 kts | 296° |
| 2026-05-05 18:54 | 54.35784 | 18.54520 | 1155 ft | 141 kts | 294° |
| 2026-05-05 18:54 | 54.36150 | 18.52950 | 1006 ft | 142 kts | 295° |
| 2026-05-05 18:54 | 54.36554 | 18.51434 | 820 ft | 143 kts | 297° |
| 2026-05-05 18:54 | 54.36966 | 18.49873 | 680 ft | 140 kts | 295° |
| 2026-05-05 18:55 | 54.37358 | 18.48326 | 538 ft | 143 kts | 294° |
| 2026-05-05 18:55 | 54.37730 | 18.46790 | 472 ft | 134 kts | 291° |
| 2026-05-05 18:55 | 54.37963 | 18.45798 | 466 ft | 51 kts | 292° |
| 2026-05-05 18:55 | 54.38101 | 18.45251 | 458 ft | 60 kts | 294° |
| 2026-05-05 18:56 | 54.38186 | 18.45131 | 459 ft | 8 kts | 19° |
| 2026-05-05 18:56 | 54.38233 | 18.45258 | 459 ft | 20 kts | 90° |
| 2026-05-05 18:56 | 54.38143 | 18.45542 | 462 ft | 36 kts | 131° |
| 2026-05-05 18:56 | 54.38103 | 18.45637 | 460 ft | 4 kts | 118° |
| 2026-05-05 18:57 | 54.38092 | 18.45745 | 464 ft | 15 kts | 86° |
| 2026-05-05 18:57 | 54.38078 | 18.45926 | 463 ft | 17 kts | 118° |
| 2026-05-05 18:57 | 54.38021 | 18.46126 | 465 ft | 18 kts | 103° |
| 2026-05-05 18:57 | 54.37972 | 18.46344 | 469 ft | 21 kts | 103° |
| 2026-05-05 18:58 | 54.37959 | 18.46605 | 471 ft | 20 kts | 79° |
| 2026-05-05 18:58 | 54.38028 | 18.46766 | 472 ft | 0 kts | 21° |